createdAt,value
2017-12-15T00:01:12.315Z,20.17
2017-12-15T00:03:39.718Z,20.00
2017-12-15T00:06:07.195Z,21.40
2017-12-15T00:08:34.586Z,20.30
2017-12-15T00:11:01.975Z,20.13
2017-12-15T00:13:29.364Z,19.53
2017-12-15T00:15:56.759Z,20.70
2017-12-15T00:18:24.168Z,22.47
2017-12-15T00:20:51.558Z,19.00
2017-12-15T00:23:18.977Z,16.53
2017-12-15T00:25:46.374Z,21.30
2017-12-15T00:28:13.762Z,19.67
2017-12-15T00:30:41.177Z,21.13
2017-12-15T00:33:08.575Z,22.17
2017-12-15T00:35:35.990Z,28.57
2017-12-15T00:38:03.403Z,25.03
2017-12-15T00:40:30.827Z,19.10
2017-12-15T00:42:58.234Z,19.20
2017-12-15T00:45:25.623Z,20.07
2017-12-15T00:47:53.011Z,20.93
2017-12-15T00:50:20.483Z,21.73
2017-12-15T00:52:47.881Z,23.00
2017-12-15T00:55:15.262Z,22.63
2017-12-15T00:57:42.682Z,29.13
2017-12-15T01:00:10.055Z,23.80
2017-12-15T01:02:37.447Z,25.90
2017-12-15T01:05:04.836Z,17.93
2017-12-15T01:07:32.236Z,22.63
2017-12-15T01:09:59.622Z,18.83
2017-12-15T01:12:27.017Z,27.73
2017-12-15T01:14:54.406Z,16.00
2017-12-15T01:17:21.887Z,21.27
2017-12-15T01:19:49.274Z,19.00
2017-12-15T01:22:16.670Z,27.20
2017-12-15T01:24:44.155Z,28.60
2017-12-15T01:27:11.544Z,21.40
2017-12-15T01:29:38.934Z,22.43
2017-12-15T01:32:06.430Z,21.90
2017-12-15T01:34:33.827Z,24.23
2017-12-15T01:37:01.215Z,20.00
2017-12-15T01:39:28.607Z,19.93
2017-12-15T01:41:55.995Z,21.73
2017-12-15T01:44:23.390Z,20.67
2017-12-15T01:46:50.775Z,20.87
2017-12-15T01:49:18.167Z,19.27
2017-12-15T01:51:45.555Z,17.10
2017-12-15T01:54:13.021Z,21.37
2017-12-15T01:56:40.407Z,15.30
2017-12-15T01:59:07.803Z,25.17
2017-12-15T02:01:35.195Z,19.20
2017-12-15T02:04:02.603Z,18.10
2017-12-15T02:06:29.990Z,20.47
2017-12-15T02:08:57.390Z,20.67
2017-12-15T02:11:24.774Z,24.53
2017-12-15T02:13:52.184Z,22.07
2017-12-15T02:16:19.573Z,23.60
2017-12-15T02:18:46.959Z,23.87
2017-12-15T02:21:14.362Z,20.40
2017-12-15T02:23:41.750Z,24.37
2017-12-15T02:26:09.151Z,24.87
2017-12-15T02:28:36.554Z,25.27
2017-12-15T02:31:03.955Z,23.57
2017-12-15T02:33:31.343Z,22.10
2017-12-15T02:35:58.739Z,22.97
2017-12-15T02:38:26.131Z,22.00
2017-12-15T02:40:53.531Z,19.70
2017-12-15T02:43:20.914Z,19.73
2017-12-15T02:45:48.321Z,16.50
2017-12-15T02:48:15.723Z,23.00
2017-12-15T02:50:43.135Z,19.37
2017-12-15T02:53:10.524Z,19.37
2017-12-15T02:55:37.923Z,24.13
2017-12-15T02:58:05.316Z,19.57
2017-12-15T03:00:32.711Z,17.33
2017-12-15T03:03:00.103Z,17.77
2017-12-15T03:05:27.490Z,17.90
2017-12-15T03:07:55.140Z,19.63
2017-12-15T03:10:22.526Z,23.53
2017-12-15T03:12:49.931Z,18.27
2017-12-15T03:15:17.318Z,23.40
2017-12-15T03:17:44.718Z,24.73
2017-12-15T03:20:12.104Z,30.33
2017-12-15T03:22:39.494Z,17.30
2017-12-15T03:25:06.889Z,19.13
2017-12-15T03:27:34.308Z,18.87
2017-12-15T03:30:01.696Z,20.70
2017-12-15T03:32:29.088Z,20.80
2017-12-15T03:34:56.475Z,17.23
2017-12-15T03:37:23.879Z,19.50
2017-12-15T03:39:51.267Z,19.83
2017-12-15T03:42:18.666Z,19.50
2017-12-15T03:44:46.091Z,19.70
2017-12-15T03:47:13.492Z,19.10
2017-12-15T03:49:40.904Z,24.60
2017-12-15T03:52:08.301Z,24.20
2017-12-15T03:54:35.694Z,17.97
2017-12-15T03:57:03.114Z,19.53
2017-12-15T03:59:30.502Z,21.70
2017-12-15T04:01:57.900Z,20.02
2017-12-15T04:04:25.292Z,30.73
2017-12-15T04:06:52.687Z,19.80
2017-12-15T04:09:20.076Z,24.27
2017-12-15T04:11:47.462Z,23.57
2017-12-15T04:14:14.855Z,18.93
2017-12-15T04:16:42.253Z,21.50
2017-12-15T04:19:09.638Z,22.10
2017-12-15T04:21:37.054Z,23.50
2017-12-15T04:24:04.439Z,20.13
2017-12-15T04:26:31.834Z,25.63
2017-12-15T04:28:59.227Z,19.63
2017-12-15T04:31:26.614Z,25.30
2017-12-15T04:33:54.012Z,24.20
2017-12-15T04:36:21.407Z,22.80
2017-12-15T04:38:48.896Z,22.20
2017-12-15T04:41:16.283Z,24.83
2017-12-15T04:43:43.677Z,20.33
2017-12-15T04:46:11.064Z,22.93
2017-12-15T04:48:38.532Z,19.50
2017-12-15T04:51:05.927Z,20.00
2017-12-15T04:53:33.350Z,22.27
2017-12-15T04:56:00.739Z,29.17
2017-12-15T04:58:28.155Z,18.97
2017-12-15T05:00:55.542Z,20.13
2017-12-15T05:03:22.951Z,24.37
2017-12-15T05:05:50.335Z,21.33
2017-12-15T05:08:17.727Z,26.53
2017-12-15T05:10:45.256Z,24.33
2017-12-15T05:13:12.682Z,24.87
2017-12-15T05:15:40.096Z,27.27
2017-12-15T05:18:07.496Z,25.07
2017-12-15T05:20:34.917Z,26.57
2017-12-15T05:23:02.347Z,27.83
2017-12-15T05:25:29.865Z,20.70
2017-12-15T05:27:57.307Z,25.50
2017-12-15T05:30:24.744Z,31.50
2017-12-15T05:32:52.152Z,24.53
2017-12-15T05:35:19.575Z,30.30
2017-12-15T05:37:47.007Z,28.67
2017-12-15T05:40:14.521Z,24.30
2017-12-15T05:42:42.000Z,27.50
2017-12-15T05:45:09.400Z,25.40
2017-12-15T05:47:36.792Z,27.53
2017-12-15T05:50:04.188Z,22.50
2017-12-15T05:52:31.625Z,25.63
2017-12-15T05:54:59.018Z,31.10
2017-12-15T05:57:26.407Z,28.70
2017-12-15T05:59:53.831Z,34.03
2017-12-15T06:02:21.219Z,34.30
2017-12-15T06:04:48.658Z,38.03
2017-12-15T06:07:16.051Z,29.83
2017-12-15T06:09:43.442Z,34.23
2017-12-15T06:12:10.838Z,34.77
2017-12-15T06:14:38.260Z,33.43
2017-12-15T06:17:05.719Z,35.73
2017-12-15T06:19:33.162Z,35.67
2017-12-15T06:22:00.559Z,32.87
2017-12-15T06:24:28.006Z,33.47
2017-12-15T06:26:55.395Z,30.37
2017-12-15T06:29:22.846Z,30.07
2017-12-15T06:31:50.247Z,27.83
2017-12-15T06:34:17.656Z,36.77
2017-12-15T06:36:45.077Z,30.40
2017-12-15T06:39:12.489Z,29.57
2017-12-15T06:41:39.871Z,32.80
2017-12-15T06:44:07.925Z,30.07
2017-12-15T06:46:35.423Z,32.90
2017-12-15T06:49:02.806Z,29.77
2017-12-15T06:51:30.203Z,32.17
2017-12-15T06:53:57.591Z,27.20
2017-12-15T06:56:24.989Z,30.83
2017-12-15T06:58:52.478Z,39.77
2017-12-15T07:01:19.935Z,34.70
2017-12-15T07:03:47.315Z,36.53
2017-12-15T07:06:14.723Z,35.03
2017-12-15T07:08:42.119Z,32.60
2017-12-15T07:11:09.520Z,36.20
2017-12-15T07:13:36.911Z,37.57
2017-12-15T07:16:04.303Z,31.77
2017-12-15T07:18:31.702Z,33.10
2017-12-15T07:20:59.109Z,33.93
2017-12-15T07:23:26.503Z,35.73
2017-12-15T07:25:53.900Z,32.90
2017-12-15T07:28:21.332Z,37.17
2017-12-15T07:30:48.710Z,40.00
2017-12-15T07:33:16.156Z,38.33
2017-12-15T07:35:43.543Z,46.17
2017-12-15T07:38:10.949Z,34.30
2017-12-15T07:40:38.359Z,42.00
2017-12-15T07:43:05.781Z,38.67
2017-12-15T07:45:33.159Z,49.90
2017-12-15T07:48:00.547Z,42.90
2017-12-15T07:50:28.868Z,47.20
2017-12-15T07:52:56.291Z,47.73
2017-12-15T07:55:23.687Z,43.53
2017-12-15T07:57:51.071Z,44.40
2017-12-15T08:00:18.471Z,46.63
2017-12-15T08:02:45.859Z,51.37
2017-12-15T08:05:13.254Z,54.03
2017-12-15T08:07:40.828Z,45.80
2017-12-15T08:10:08.219Z,44.63
2017-12-15T08:12:35.606Z,45.03
2017-12-15T08:15:03.003Z,48.63
2017-12-15T08:17:30.391Z,50.27
2017-12-15T08:19:57.792Z,47.40
2017-12-15T08:22:25.200Z,53.67
2017-12-15T08:24:52.601Z,48.30
2017-12-15T08:27:19.992Z,46.77
2017-12-15T08:29:47.422Z,52.73
2017-12-15T08:32:14.836Z,56.70
2017-12-15T08:34:42.262Z,50.27
2017-12-15T08:37:09.667Z,54.60
2017-12-15T08:39:37.075Z,54.57
2017-12-15T08:42:04.503Z,52.20
2017-12-15T08:44:31.914Z,47.43
2017-12-15T08:46:59.296Z,44.40
2017-12-15T08:49:26.688Z,47.80
2017-12-15T08:51:54.084Z,48.67
2017-12-15T08:54:21.475Z,59.13
2017-12-15T08:56:48.867Z,46.80
2017-12-15T08:59:16.250Z,51.60
2017-12-15T09:01:43.662Z,49.70
2017-12-15T09:04:16.723Z,53.20
2017-12-15T09:06:45.887Z,52.70
2017-12-15T09:09:13.394Z,48.00
2017-12-15T09:11:40.845Z,44.07
2017-12-15T09:14:09.153Z,52.00
2017-12-15T09:16:36.547Z,48.30
2017-12-15T09:19:03.931Z,50.53
2017-12-15T09:21:31.335Z,56.37
2017-12-15T09:23:58.726Z,47.30
2017-12-15T09:26:26.140Z,51.60
2017-12-15T09:28:53.539Z,45.10
2017-12-15T09:31:20.925Z,61.57
2017-12-15T09:33:48.314Z,50.60
2017-12-15T09:36:15.698Z,39.23
2017-12-15T09:38:43.096Z,47.90
2017-12-15T09:41:10.479Z,45.07
2017-12-15T09:43:37.875Z,49.33
2017-12-15T09:46:05.271Z,50.10
2017-12-15T09:48:32.680Z,44.27
2017-12-15T09:51:00.067Z,53.23
2017-12-15T09:53:27.461Z,47.03
2017-12-15T09:55:54.845Z,40.27
2017-12-15T09:58:22.246Z,51.73
2017-12-15T10:00:49.643Z,46.77
2017-12-15T10:03:17.040Z,34.43
2017-12-15T10:05:44.430Z,44.53
2017-12-15T10:08:11.828Z,38.80
2017-12-15T10:10:39.218Z,37.30
2017-12-15T10:13:06.627Z,42.83
2017-12-15T10:15:34.013Z,45.97
2017-12-15T10:18:01.439Z,47.20
2017-12-15T10:20:28.840Z,48.43
2017-12-15T10:22:56.231Z,45.87
2017-12-15T10:25:23.635Z,41.57
2017-12-15T10:27:51.038Z,39.97
2017-12-15T10:30:18.445Z,43.20
2017-12-15T10:32:45.835Z,40.73
2017-12-15T10:35:13.335Z,43.87
2017-12-15T10:37:40.783Z,45.83
2017-12-15T10:40:08.176Z,42.80
2017-12-15T10:42:35.571Z,38.80
2017-12-15T10:45:02.970Z,43.67
2017-12-15T10:47:30.347Z,38.43
2017-12-15T10:49:57.747Z,45.13
2017-12-15T10:52:25.130Z,37.33
2017-12-15T10:54:52.536Z,39.83
2017-12-15T10:57:19.928Z,43.67
2017-12-15T10:59:47.319Z,35.80
2017-12-15T11:02:14.714Z,39.00
2017-12-15T11:04:42.099Z,39.43
2017-12-15T11:07:09.491Z,33.70
2017-12-15T11:09:36.888Z,41.00
2017-12-15T11:12:04.291Z,30.10
2017-12-15T11:14:31.683Z,28.53
2017-12-15T11:16:59.808Z,31.97
2017-12-15T11:19:27.206Z,32.83
2017-12-15T11:21:54.603Z,26.53
2017-12-15T11:24:21.998Z,28.20
2017-12-15T11:26:49.386Z,27.93
2017-12-15T11:29:16.799Z,26.67
2017-12-15T11:31:44.201Z,25.63
2017-12-15T11:34:12.740Z,25.10
2017-12-15T11:36:40.139Z,24.80
2017-12-15T11:39:07.535Z,26.00
2017-12-15T11:41:34.922Z,25.87
2017-12-15T11:44:02.339Z,30.50
2017-12-15T11:46:29.719Z,28.53
2017-12-15T11:48:57.131Z,19.07
2017-12-15T11:51:24.523Z,23.60
2017-12-15T11:53:51.911Z,37.13
2017-12-15T11:56:19.307Z,21.50
2017-12-15T11:58:46.799Z,24.10
2017-12-15T12:01:14.194Z,25.27
2017-12-15T12:03:41.602Z,21.50
2017-12-15T12:06:08.987Z,23.43
2017-12-15T12:08:36.399Z,25.97
2017-12-15T12:11:03.799Z,30.60
2017-12-15T12:13:31.195Z,33.47
2017-12-15T12:15:58.670Z,32.47
2017-12-15T12:18:26.064Z,25.30
2017-12-15T12:20:53.520Z,26.13
2017-12-15T12:23:20.919Z,26.70
2017-12-15T12:25:48.311Z,25.63
2017-12-15T12:28:15.699Z,22.03
2017-12-15T12:30:43.114Z,20.37
2017-12-15T12:33:10.507Z,30.67
2017-12-15T12:35:37.886Z,23.90
2017-12-15T12:38:05.287Z,23.03
2017-12-15T12:40:32.675Z,30.00
2017-12-15T12:43:00.071Z,26.13
2017-12-15T12:45:27.462Z,23.10
2017-12-15T12:47:54.851Z,26.07
2017-12-15T12:50:22.246Z,27.67
2017-12-15T12:52:49.634Z,28.67
2017-12-15T12:55:17.014Z,26.00
2017-12-15T12:57:44.527Z,22.97
2017-12-15T13:00:11.991Z,26.57
2017-12-15T13:02:39.384Z,32.27
2017-12-15T13:05:06.782Z,24.60
2017-12-15T13:07:34.263Z,23.27
2017-12-15T13:10:01.648Z,25.80
2017-12-15T13:12:29.043Z,29.83
2017-12-15T13:14:56.440Z,18.67
2017-12-15T13:17:23.825Z,22.90
2017-12-15T13:19:51.382Z,27.57
2017-12-15T13:22:18.791Z,26.20
2017-12-15T13:24:46.175Z,26.57
2017-12-15T13:27:13.571Z,26.10
2017-12-15T13:29:40.967Z,36.90
2017-12-15T13:32:08.358Z,26.97
2017-12-15T13:34:35.755Z,24.53
2017-12-15T13:37:03.143Z,21.00
2017-12-15T13:39:30.543Z,23.90
2017-12-15T13:41:57.951Z,23.03
2017-12-15T13:44:25.339Z,27.13
2017-12-15T13:46:52.730Z,27.70
2017-12-15T13:49:20.127Z,21.47
2017-12-15T13:51:47.521Z,20.87
2017-12-15T13:54:14.919Z,29.43
2017-12-15T13:56:42.314Z,27.50
2017-12-15T13:59:09.707Z,25.30
2017-12-15T14:01:37.111Z,27.67
2017-12-15T14:04:04.495Z,21.77
2017-12-15T14:06:31.893Z,30.50
2017-12-15T14:08:59.287Z,33.33
2017-12-15T14:11:26.679Z,24.47
2017-12-15T14:13:54.103Z,24.57
2017-12-15T14:16:21.504Z,29.13
2017-12-15T14:18:48.924Z,31.50
2017-12-15T14:21:16.309Z,29.63
2017-12-15T14:23:43.699Z,28.07
2017-12-15T14:26:11.097Z,27.63
2017-12-15T14:28:38.502Z,28.43
2017-12-15T14:31:05.904Z,26.92
2017-12-15T14:33:33.320Z,33.83
2017-12-15T14:36:00.710Z,22.53
2017-12-15T14:38:28.100Z,25.00
2017-12-15T14:40:55.496Z,27.17
2017-12-15T14:43:22.885Z,35.40
2017-12-15T14:45:50.279Z,24.37
2017-12-15T14:48:17.667Z,25.50
2017-12-15T14:50:45.076Z,29.50
2017-12-15T14:53:12.462Z,25.97
2017-12-15T14:55:40.087Z,25.00
2017-12-15T14:58:07.483Z,30.53
2017-12-15T15:00:34.887Z,43.38
2017-12-15T15:03:02.280Z,53.07
2017-12-15T15:05:29.675Z,36.70
2017-12-15T15:07:57.072Z,36.93
2017-12-15T15:10:24.459Z,33.60
2017-12-15T15:12:51.872Z,35.70
2017-12-15T15:15:19.266Z,32.90
2017-12-15T15:17:46.774Z,46.53
2017-12-15T15:20:14.166Z,36.80
2017-12-15T15:22:41.569Z,146.77
2017-12-15T15:25:08.950Z,60.03
2017-12-15T15:27:36.350Z,75.87
2017-12-15T15:30:03.912Z,57.33
2017-12-15T15:32:31.302Z,39.53
2017-12-15T15:34:58.707Z,33.50
2017-12-15T15:37:26.099Z,37.53
2017-12-15T15:39:53.491Z,32.60
2017-12-15T15:42:20.886Z,33.43
2017-12-15T15:44:48.270Z,29.93
2017-12-15T15:47:15.666Z,34.90
2017-12-15T15:49:43.055Z,37.00
2017-12-15T15:52:10.452Z,35.50
2017-12-15T15:54:37.902Z,38.90
2017-12-15T15:57:05.282Z,39.80
2017-12-15T15:59:32.679Z,47.63
2017-12-15T16:02:00.069Z,41.50
2017-12-15T16:04:27.471Z,48.90
2017-12-15T16:06:54.859Z,43.00
2017-12-15T16:09:22.259Z,43.73
2017-12-15T16:11:49.663Z,39.03
2017-12-15T16:14:17.051Z,38.20
2017-12-15T16:16:44.464Z,32.37
2017-12-15T16:19:11.851Z,32.83
2017-12-15T16:21:39.236Z,39.37
2017-12-15T16:24:06.662Z,32.90
2017-12-15T16:26:34.275Z,37.00
2017-12-15T16:29:01.677Z,32.13
2017-12-15T16:31:29.066Z,36.10
2017-12-15T16:33:56.503Z,29.23
2017-12-15T16:36:23.886Z,30.17
2017-12-15T16:38:51.286Z,29.00
2017-12-15T16:41:18.671Z,37.00
2017-12-15T16:43:46.076Z,31.07
2017-12-15T16:46:13.499Z,34.37
2017-12-15T16:48:40.915Z,29.73
2017-12-15T16:51:08.311Z,35.77
2017-12-15T16:53:35.690Z,39.10
2017-12-15T16:56:03.080Z,37.30
2017-12-15T16:58:30.468Z,37.23
2017-12-15T17:00:57.903Z,36.27
2017-12-15T17:03:25.295Z,30.17
2017-12-15T17:05:52.682Z,28.30
2017-12-15T17:08:20.102Z,42.43
2017-12-15T17:10:47.499Z,36.33
2017-12-15T17:13:14.890Z,43.00
2017-12-15T17:15:42.287Z,31.80
2017-12-15T17:18:09.671Z,37.43
2017-12-15T17:20:37.062Z,44.97
2017-12-15T17:23:04.494Z,40.83
2017-12-15T17:25:31.851Z,30.30
2017-12-15T17:27:59.291Z,32.53
2017-12-15T17:30:26.691Z,31.60
2017-12-15T17:32:54.089Z,31.00
2017-12-15T17:35:21.493Z,36.57
2017-12-15T17:37:48.914Z,36.17
2017-12-15T17:40:16.315Z,35.10
2017-12-15T17:42:43.707Z,52.87
2017-12-15T17:45:11.107Z,55.77
2017-12-15T17:47:38.547Z,59.77
2017-12-15T17:50:05.955Z,61.03
2017-12-15T17:52:33.347Z,76.67
2017-12-15T17:55:00.756Z,57.33
2017-12-15T17:57:28.143Z,41.20
2017-12-15T17:59:55.527Z,37.57
2017-12-15T18:02:22.926Z,39.00
2017-12-15T18:04:50.319Z,43.90
2017-12-15T18:07:17.716Z,41.73
2017-12-15T18:09:45.107Z,42.10
2017-12-15T18:12:12.503Z,46.73
2017-12-15T18:14:39.882Z,66.77
2017-12-15T18:17:07.283Z,59.70
2017-12-15T18:19:34.674Z,43.30
2017-12-15T18:22:02.070Z,35.73
2017-12-15T18:24:29.459Z,33.97
2017-12-15T18:26:56.859Z,49.37
2017-12-15T18:29:24.254Z,43.47
2017-12-15T18:31:51.647Z,58.30
2017-12-15T18:34:19.071Z,52.20
2017-12-15T18:36:46.471Z,67.93
2017-12-15T18:39:13.859Z,72.33
2017-12-15T18:41:41.344Z,63.73
2017-12-15T18:44:08.751Z,63.70
2017-12-15T18:46:36.201Z,71.50
2017-12-15T18:49:03.539Z,66.53
2017-12-15T18:51:30.935Z,66.77
2017-12-15T18:53:58.325Z,62.63
2017-12-15T18:56:25.714Z,63.07
2017-12-15T18:58:53.099Z,49.63
2017-12-15T19:01:20.499Z,50.67
2017-12-15T19:03:47.911Z,67.47
2017-12-15T19:06:15.304Z,63.23
2017-12-15T19:08:42.696Z,66.63
2017-12-15T19:11:10.087Z,48.40
2017-12-15T19:13:37.483Z,48.50
2017-12-15T19:16:04.872Z,43.67
2017-12-15T19:18:32.262Z,41.53
2017-12-15T19:20:59.655Z,38.07
2017-12-15T19:23:27.047Z,38.93
2017-12-15T19:25:54.438Z,44.37
2017-12-15T19:28:21.836Z,37.73
2017-12-15T19:30:49.219Z,55.37
2017-12-15T19:33:16.696Z,55.13
2017-12-15T19:35:44.083Z,59.87
2017-12-15T19:38:11.612Z,56.87
2017-12-15T19:40:39.003Z,54.60
2017-12-15T19:43:06.429Z,61.47
2017-12-15T19:45:33.815Z,53.13
2017-12-15T19:48:01.210Z,57.50
2017-12-15T19:50:28.600Z,49.67
2017-12-15T19:52:56.007Z,46.63
2017-12-15T19:55:23.396Z,53.10
2017-12-15T19:57:50.790Z,47.53
2017-12-15T20:00:18.179Z,50.50
2017-12-15T20:02:45.582Z,51.73
2017-12-15T20:05:12.992Z,55.13
2017-12-15T20:07:40.379Z,57.43
2017-12-15T20:10:07.763Z,54.43
2017-12-15T20:12:35.168Z,66.47
2017-12-15T20:15:02.552Z,54.37
2017-12-15T20:17:32.859Z,53.33
2017-12-15T20:20:00.247Z,63.40
2017-12-15T20:22:27.634Z,64.37
2017-12-15T20:24:55.051Z,75.57
2017-12-15T20:27:22.436Z,52.50
2017-12-15T20:29:49.826Z,64.40
2017-12-15T20:32:17.219Z,65.67
2017-12-15T20:34:44.611Z,52.80
2017-12-15T20:37:12.095Z,58.90
2017-12-15T20:39:39.491Z,81.73
2017-12-15T20:42:06.874Z,53.27
2017-12-15T20:44:34.279Z,53.43
2017-12-15T20:47:01.681Z,63.60
2017-12-15T20:49:29.071Z,58.17
2017-12-15T20:51:56.528Z,54.50
2017-12-15T20:54:23.923Z,43.20
2017-12-15T20:56:51.315Z,51.00
2017-12-15T20:59:18.707Z,46.30
2017-12-15T21:01:46.100Z,44.57
2017-12-15T21:04:13.513Z,43.73
2017-12-15T21:06:40.903Z,44.13
2017-12-15T21:09:08.303Z,53.13
2017-12-15T21:11:35.694Z,47.03
2017-12-15T21:14:03.422Z,42.53
2017-12-15T21:16:30.824Z,46.30
2017-12-15T21:18:58.215Z,48.50
2017-12-15T21:21:25.607Z,41.80
2017-12-15T21:23:52.994Z,48.40
2017-12-15T21:26:20.404Z,44.87
2017-12-15T21:28:47.804Z,48.77
2017-12-15T21:31:15.187Z,48.27
2017-12-15T21:33:42.589Z,45.50
2017-12-15T21:36:09.973Z,46.47
2017-12-15T21:38:37.364Z,48.90
2017-12-15T21:41:04.750Z,46.00
2017-12-15T21:43:32.145Z,39.07
2017-12-15T21:45:59.547Z,40.53
2017-12-15T21:48:26.938Z,49.33
2017-12-15T21:50:54.345Z,49.93
2017-12-15T21:53:21.803Z,43.63
2017-12-15T21:55:49.199Z,45.10
2017-12-15T21:58:16.608Z,51.40
2017-12-15T22:00:43.994Z,47.70
2017-12-15T22:03:11.386Z,47.50
2017-12-15T22:05:38.779Z,51.57
2017-12-15T22:08:06.167Z,48.13
2017-12-15T22:10:33.568Z,50.33
2017-12-15T22:13:00.954Z,40.70
2017-12-15T22:15:28.371Z,57.90
2017-12-15T22:17:56.094Z,53.10
2017-12-15T22:20:23.486Z,51.57
2017-12-15T22:22:50.878Z,46.67
2017-12-15T22:25:18.275Z,47.30
2017-12-15T22:27:45.671Z,57.63
2017-12-15T22:30:13.070Z,45.60
2017-12-15T22:32:40.470Z,43.90
2017-12-15T22:35:07.897Z,48.47
2017-12-15T22:37:35.292Z,49.80
2017-12-15T22:40:02.718Z,48.87
2017-12-15T22:42:30.111Z,46.90
2017-12-15T22:44:57.529Z,46.33
2017-12-15T22:47:24.919Z,60.13
2017-12-15T22:49:52.324Z,49.73
2017-12-15T22:52:19.721Z,53.20
2017-12-15T22:54:47.165Z,51.43
2017-12-15T22:57:14.510Z,53.03
2017-12-15T22:59:41.894Z,49.77
2017-12-15T23:02:09.299Z,49.50
2017-12-15T23:04:36.683Z,46.13
2017-12-15T23:07:04.079Z,54.50
2017-12-15T23:09:31.467Z,56.47
2017-12-15T23:11:58.968Z,50.10
2017-12-15T23:14:26.355Z,66.53
2017-12-15T23:16:53.750Z,58.70
2017-12-15T23:19:21.147Z,58.57
2017-12-15T23:21:48.544Z,62.80
2017-12-15T23:24:15.953Z,62.03
2017-12-15T23:26:43.351Z,56.10
2017-12-15T23:29:10.747Z,67.40
2017-12-15T23:31:38.210Z,63.00
2017-12-15T23:34:05.599Z,68.47
2017-12-15T23:36:32.995Z,68.60
2017-12-15T23:39:00.385Z,75.00
2017-12-15T23:41:27.779Z,73.77
2017-12-15T23:43:55.183Z,70.00
2017-12-15T23:46:22.582Z,74.13
2017-12-15T23:48:49.966Z,72.20
2017-12-15T23:51:17.451Z,65.77
2017-12-15T23:53:44.847Z,75.70
2017-12-15T23:56:24.162Z,78.60
2017-12-15T23:58:51.626Z,69.67
